createdAt,value
2022-11-28T00:00:08.937Z,4.16
2022-11-28T00:01:08.917Z,4.16
2022-11-28T00:02:09.017Z,4.27
2022-11-28T00:03:08.985Z,4.33
2022-11-28T00:04:09.351Z,4.36
2022-11-28T00:05:08.866Z,4.37
2022-11-28T00:06:08.868Z,4.40
2022-11-28T00:07:08.849Z,4.37
2022-11-28T00:08:09.399Z,4.37
2022-11-28T00:09:08.834Z,4.41
2022-11-28T00:10:08.819Z,4.37
2022-11-28T00:11:08.819Z,4.40
2022-11-28T00:12:08.810Z,4.36
2022-11-28T00:13:08.790Z,4.36
2022-11-28T00:14:08.789Z,4.37
2022-11-28T00:15:08.762Z,4.41
2022-11-28T00:16:08.779Z,4.44
2022-11-28T00:17:08.743Z,4.48
2022-11-28T00:18:08.741Z,4.51
2022-11-28T00:19:08.731Z,4.52
2022-11-28T00:20:08.723Z,4.52
2022-11-28T00:21:09.085Z,4.50
2022-11-28T00:22:08.708Z,4.47
2022-11-28T00:23:08.672Z,4.48
2022-11-28T00:24:08.682Z,4.48
2022-11-28T00:25:08.653Z,4.48
2022-11-28T00:26:08.733Z,4.45
2022-11-28T00:27:08.640Z,4.44
2022-11-28T00:28:08.642Z,4.44
2022-11-28T00:29:08.615Z,4.44
2022-11-28T00:30:09.424Z,4.41
2022-11-28T00:31:09.432Z,4.40
2022-11-28T00:32:08.663Z,4.36
2022-11-28T00:33:08.574Z,4.41
2022-11-28T00:34:08.575Z,4.36
2022-11-28T00:35:09.363Z,4.37
2022-11-28T00:36:08.565Z,4.37
2022-11-28T00:37:08.534Z,4.40
2022-11-28T00:38:08.526Z,4.40
2022-11-28T00:39:08.855Z,4.40
2022-11-28T00:40:08.526Z,4.37
2022-11-28T00:41:08.494Z,4.37
2022-11-28T00:42:08.501Z,4.37
2022-11-28T00:43:08.479Z,4.40
2022-11-28T00:44:08.634Z,4.37
2022-11-28T00:45:08.456Z,4.36
2022-11-28T00:46:08.477Z,4.37
2022-11-28T00:47:08.439Z,4.37
2022-11-28T00:48:08.435Z,4.37
2022-11-28T00:49:08.418Z,4.37
2022-11-28T00:50:08.439Z,4.40
2022-11-28T00:51:08.388Z,4.36
2022-11-28T00:52:08.396Z,4.36
2022-11-28T00:53:08.365Z,4.36
2022-11-28T00:54:08.399Z,4.33
2022-11-28T00:55:08.355Z,4.33
2022-11-28T00:56:08.352Z,4.32
2022-11-28T00:57:08.333Z,4.30
2022-11-28T00:58:08.331Z,4.29
2022-11-28T00:59:08.316Z,4.30
2022-11-28T01:00:08.309Z,4.27
2022-11-28T01:01:08.331Z,4.26
2022-11-28T01:02:08.366Z,4.26
2022-11-28T01:03:08.263Z,4.26
2022-11-28T01:04:08.267Z,4.26
2022-11-28T01:05:08.250Z,4.23
2022-11-28T01:06:08.248Z,4.22
2022-11-28T01:07:08.597Z,4.20
2022-11-28T01:08:08.221Z,4.18
2022-11-28T01:09:08.193Z,4.16
2022-11-28T01:10:08.192Z,4.16
2022-11-28T01:11:08.181Z,4.12
2022-11-28T01:12:08.196Z,4.11
2022-11-28T01:13:08.164Z,4.11
2022-11-28T01:14:08.162Z,4.11
2022-11-28T01:15:08.148Z,4.09
2022-11-28T01:16:08.779Z,4.08
2022-11-28T01:17:08.113Z,4.06
2022-11-28T01:18:08.152Z,4.06
2022-11-28T01:19:08.103Z,4.06
2022-11-28T01:20:08.095Z,4.05
2022-11-28T01:21:08.080Z,4.04
2022-11-28T01:22:08.072Z,4.04
2022-11-28T01:23:08.054Z,4.05
2022-11-28T01:24:08.064Z,4.06
2022-11-28T01:25:08.057Z,4.05
2022-11-28T01:26:08.201Z,4.04
2022-11-28T01:27:08.026Z,4.04
2022-11-28T01:28:07.996Z,4.04
2022-11-28T01:29:08.028Z,4.04
2022-11-28T01:30:08.055Z,4.00
2022-11-28T01:31:08.043Z,4.00
2022-11-28T01:32:07.966Z,4.02
2022-11-28T01:33:07.965Z,4.00
2022-11-28T01:34:07.936Z,3.98
2022-11-28T01:35:08.756Z,3.97
2022-11-28T01:36:07.937Z,3.98
2022-11-28T01:37:07.920Z,3.98
2022-11-28T01:38:07.916Z,3.97
2022-11-28T01:39:07.898Z,3.96
2022-11-28T01:40:07.896Z,3.96
2022-11-28T01:41:07.879Z,3.94
2022-11-28T01:42:07.877Z,3.91
2022-11-28T01:43:07.857Z,3.91
2022-11-28T01:44:08.009Z,3.94
2022-11-28T01:45:07.838Z,3.94
2022-11-28T01:46:07.809Z,3.96
2022-11-28T01:47:07.878Z,4.00
2022-11-28T01:48:07.799Z,3.97
2022-11-28T01:49:08.619Z,3.97
2022-11-28T01:50:08.619Z,3.97
2022-11-28T01:51:07.779Z,3.96
2022-11-28T01:52:07.749Z,3.93
2022-11-28T01:53:08.391Z,3.93
2022-11-28T01:54:07.743Z,3.90
2022-11-28T01:55:07.742Z,3.87
2022-11-28T01:56:07.719Z,3.87
2022-11-28T01:57:08.511Z,3.84
2022-11-28T01:58:07.694Z,3.83
2022-11-28T01:59:07.715Z,3.79
2022-11-28T02:00:07.701Z,3.83
2022-11-28T02:01:07.756Z,3.83
2022-11-28T02:02:08.547Z,3.79
2022-11-28T02:03:07.652Z,3.80
2022-11-28T02:04:07.626Z,3.79
2022-11-28T02:05:07.732Z,3.80
2022-11-28T02:06:07.641Z,3.79
2022-11-28T02:07:08.413Z,3.80
2022-11-28T02:08:07.633Z,3.79
2022-11-28T02:09:07.593Z,3.76
2022-11-28T02:10:07.562Z,3.76
2022-11-28T02:11:07.590Z,3.76
2022-11-28T02:12:07.554Z,3.73
2022-11-28T02:13:07.562Z,3.72
2022-11-28T02:14:07.584Z,3.73
2022-11-28T02:15:07.525Z,3.75
2022-11-28T02:16:07.571Z,3.72
2022-11-28T02:17:07.591Z,3.73
2022-11-28T02:18:07.494Z,3.68
2022-11-28T02:19:07.482Z,3.72
2022-11-28T02:20:07.473Z,3.70
2022-11-28T02:21:07.464Z,3.70
2022-11-28T02:22:07.436Z,3.72
2022-11-28T02:23:07.450Z,3.70
2022-11-28T02:24:07.433Z,3.72
2022-11-28T02:25:07.418Z,3.72
2022-11-28T02:26:07.405Z,3.70
2022-11-28T02:27:07.426Z,3.69
2022-11-28T02:28:07.375Z,3.68
2022-11-28T02:29:07.377Z,3.68
2022-11-28T02:30:07.368Z,3.69
2022-11-28T02:31:07.532Z,3.69
2022-11-28T02:32:07.338Z,3.66
2022-11-28T02:33:07.337Z,3.69
2022-11-28T02:34:07.330Z,3.68
2022-11-28T02:35:07.318Z,3.69
2022-11-28T02:36:07.298Z,3.69
2022-11-28T02:37:07.289Z,3.69
2022-11-28T02:38:07.317Z,3.68
2022-11-28T02:39:07.278Z,3.68
2022-11-28T02:40:07.249Z,3.68
2022-11-28T02:41:07.259Z,3.69
2022-11-28T02:42:07.240Z,3.70
2022-11-28T02:43:07.229Z,3.70
2022-11-28T02:44:07.209Z,3.68
2022-11-28T02:45:07.212Z,3.68
2022-11-28T02:46:07.981Z,3.65
2022-11-28T02:47:07.415Z,3.62
2022-11-28T02:48:07.835Z,3.66
2022-11-28T02:49:07.171Z,3.66
2022-11-28T02:50:07.164Z,3.62
2022-11-28T02:51:07.180Z,3.65
2022-11-28T02:52:07.121Z,3.65
2022-11-28T02:53:07.132Z,3.65
2022-11-28T02:54:07.102Z,3.65
2022-11-28T02:55:07.209Z,3.69
2022-11-28T02:56:07.101Z,3.66
2022-11-28T02:57:07.299Z,3.68
2022-11-28T02:58:07.072Z,3.72
2022-11-28T02:59:07.064Z,3.72
2022-11-28T03:00:07.053Z,3.75
2022-11-28T03:01:07.232Z,3.78
2022-11-28T03:02:07.068Z,3.80
2022-11-28T03:03:07.034Z,3.83
2022-11-28T03:04:07.015Z,3.83
2022-11-28T03:05:07.003Z,3.84
2022-11-28T03:06:06.981Z,3.86
2022-11-28T03:07:06.991Z,3.93
2022-11-28T03:08:06.962Z,3.94
2022-11-28T03:09:07.616Z,3.94
2022-11-28T03:10:06.944Z,4.00
2022-11-28T03:11:06.955Z,4.00
2022-11-28T03:12:06.935Z,4.05
2022-11-28T03:13:06.926Z,4.02
2022-11-28T03:14:06.906Z,4.04
2022-11-28T03:15:07.375Z,4.05
2022-11-28T03:16:06.923Z,4.08
2022-11-28T03:17:06.885Z,4.06
2022-11-28T03:18:06.868Z,4.06
2022-11-28T03:19:06.858Z,4.06
2022-11-28T03:20:06.845Z,4.08
2022-11-28T03:21:06.851Z,4.09
2022-11-28T03:22:06.839Z,4.09
2022-11-28T03:23:06.818Z,4.09
2022-11-28T03:24:06.928Z,4.09
2022-11-28T03:25:06.799Z,4.06
2022-11-28T03:26:06.773Z,4.11
2022-11-28T03:27:06.776Z,4.15
2022-11-28T03:28:06.754Z,4.16
2022-11-28T03:29:07.559Z,4.15
2022-11-28T03:30:06.738Z,4.14
2022-11-28T03:31:06.757Z,4.15
2022-11-28T03:32:06.739Z,4.22
2022-11-28T03:33:06.889Z,4.22
2022-11-28T03:34:06.707Z,4.20
2022-11-28T03:35:06.690Z,4.20
2022-11-28T03:36:06.689Z,4.22
2022-11-28T03:37:06.789Z,4.20
2022-11-28T03:38:06.660Z,4.18
2022-11-28T03:39:06.650Z,4.16
2022-11-28T03:40:06.644Z,4.15
2022-11-28T03:41:06.641Z,4.15
2022-11-28T03:42:06.610Z,4.12
2022-11-28T03:43:06.620Z,4.12
2022-11-28T03:44:06.595Z,4.12
2022-11-28T03:45:06.595Z,4.11
2022-11-28T03:46:06.583Z,4.09
2022-11-28T03:47:06.799Z,4.08
2022-11-28T03:48:06.552Z,4.08
2022-11-28T03:49:06.543Z,4.05
2022-11-28T03:50:06.525Z,4.05
2022-11-28T03:51:06.523Z,4.05
2022-11-28T03:52:06.503Z,4.05
2022-11-28T03:53:06.526Z,4.02
2022-11-28T03:54:06.494Z,4.02
2022-11-28T03:55:06.485Z,4.00
2022-11-28T03:56:06.538Z,3.98
2022-11-28T03:57:06.465Z,3.97
2022-11-28T03:58:06.434Z,3.96
2022-11-28T03:59:06.444Z,3.94
2022-11-28T04:00:06.424Z,3.94
2022-11-28T04:01:06.485Z,3.91
2022-11-28T04:02:06.412Z,3.93
2022-11-28T04:03:06.431Z,3.97
2022-11-28T04:04:06.404Z,4.00
2022-11-28T04:05:06.386Z,4.04
2022-11-28T04:06:06.366Z,4.06
2022-11-28T04:07:06.356Z,4.09
2022-11-28T04:08:06.343Z,4.11
2022-11-28T04:09:10.092Z,4.15
2022-11-28T04:10:07.317Z,4.16
2022-11-28T04:11:06.317Z,4.20
2022-11-28T04:12:06.959Z,4.16
2022-11-28T04:13:06.325Z,4.15
2022-11-28T04:14:06.287Z,4.12
2022-11-28T04:15:06.288Z,4.09
2022-11-28T04:16:06.287Z,4.08
2022-11-28T04:17:06.287Z,4.06
2022-11-28T04:18:06.235Z,4.04
2022-11-28T04:19:06.239Z,4.00
2022-11-28T04:20:06.209Z,4.04
2022-11-28T04:21:06.209Z,3.98
2022-11-28T04:22:06.200Z,3.97
2022-11-28T04:23:06.202Z,3.96
2022-11-28T04:24:06.170Z,3.94
2022-11-28T04:25:06.174Z,3.91
2022-11-28T04:26:06.160Z,3.90
2022-11-28T04:27:06.167Z,3.90
2022-11-28T04:28:06.137Z,3.93
2022-11-28T04:29:06.131Z,3.94
2022-11-28T04:30:06.119Z,3.91
2022-11-28T04:31:06.208Z,3.94
2022-11-28T04:32:06.140Z,3.93
2022-11-28T04:33:06.081Z,3.93
2022-11-28T04:34:06.071Z,3.90
2022-11-28T04:35:06.070Z,3.87
2022-11-28T04:36:06.060Z,3.86
2022-11-28T04:37:09.762Z,3.86
2022-11-28T04:38:06.051Z,3.83
2022-11-28T04:39:06.034Z,3.83
2022-11-28T04:40:06.014Z,3.80
2022-11-28T04:41:06.014Z,3.78
2022-11-28T04:42:06.003Z,3.76
2022-11-28T04:43:05.983Z,3.76
2022-11-28T04:44:05.973Z,3.73
2022-11-28T04:45:05.977Z,3.76
2022-11-28T04:46:06.041Z,3.75
2022-11-28T04:47:05.954Z,3.76
2022-11-28T04:48:05.944Z,3.76
2022-11-28T04:49:05.924Z,3.73
2022-11-28T04:50:05.912Z,3.76
2022-11-28T04:51:05.902Z,3.76
2022-11-28T04:52:05.896Z,3.78
2022-11-28T04:53:05.888Z,3.80
2022-11-28T04:54:05.872Z,3.80
2022-11-28T04:55:05.876Z,3.80
2022-11-28T04:56:05.840Z,3.83
2022-11-28T04:57:05.845Z,3.83
2022-11-28T04:58:05.828Z,3.80
2022-11-28T04:59:05.826Z,3.80
2022-11-28T05:00:05.806Z,3.83
2022-11-28T05:01:05.815Z,3.83
2022-11-28T05:02:05.844Z,3.84
2022-11-28T05:03:05.786Z,3.83
2022-11-28T05:04:05.757Z,3.83
2022-11-28T05:05:05.769Z,3.78
2022-11-28T05:06:05.747Z,3.79
2022-11-28T05:07:05.737Z,3.84
2022-11-28T05:08:05.718Z,3.87
2022-11-28T05:09:05.909Z,3.93
2022-11-28T05:10:05.698Z,3.93
2022-11-28T05:11:05.698Z,3.96
2022-11-28T05:12:05.671Z,3.93
2022-11-28T05:13:05.677Z,3.94
2022-11-28T05:14:05.666Z,3.94
2022-11-28T05:15:05.660Z,3.93
2022-11-28T05:16:05.675Z,3.90
2022-11-28T05:17:05.638Z,3.93
2022-11-28T05:18:05.720Z,3.98
2022-11-28T05:19:05.610Z,4.05
2022-11-28T05:20:05.610Z,4.09
2022-11-28T05:21:05.592Z,4.12
2022-11-28T05:22:05.584Z,4.16
2022-11-28T05:23:05.580Z,4.20
2022-11-28T05:24:05.553Z,4.24
2022-11-28T05:25:05.552Z,4.30
2022-11-28T05:26:05.532Z,4.36
2022-11-28T05:27:05.592Z,4.36
2022-11-28T05:28:05.502Z,4.36
2022-11-28T05:29:05.512Z,4.40
2022-11-28T05:30:05.492Z,4.42
2022-11-28T05:31:05.540Z,4.47
2022-11-28T05:32:05.539Z,4.51
2022-11-28T05:33:05.472Z,4.54
2022-11-28T05:34:05.447Z,4.63
2022-11-28T05:35:05.445Z,4.62
2022-11-28T05:36:09.920Z,4.66
2022-11-28T05:37:06.434Z,4.63
2022-11-28T05:38:09.328Z,4.60
2022-11-28T05:39:06.413Z,4.55
2022-11-28T05:40:05.398Z,4.54
2022-11-28T05:41:05.375Z,4.52
2022-11-28T05:42:05.376Z,4.54
2022-11-28T05:43:05.355Z,4.59
2022-11-28T05:44:05.362Z,4.63
2022-11-28T05:45:05.336Z,4.65
2022-11-28T05:46:05.345Z,4.65
2022-11-28T05:47:05.312Z,4.63
2022-11-28T05:48:05.306Z,4.66
2022-11-28T05:49:05.294Z,4.67
2022-11-28T05:50:05.286Z,4.67
2022-11-28T05:51:05.276Z,4.70
2022-11-28T05:52:05.277Z,4.73
2022-11-28T05:53:05.253Z,4.73
2022-11-28T05:54:05.258Z,4.70
2022-11-28T05:55:05.237Z,4.67
2022-11-28T05:56:05.237Z,4.65
2022-11-28T05:57:05.209Z,4.63
2022-11-28T05:58:05.227Z,4.62
2022-11-28T05:59:05.178Z,4.62
2022-11-28T06:00:05.188Z,4.60
2022-11-28T06:01:05.193Z,4.58
2022-11-28T06:02:05.252Z,4.54
2022-11-28T06:03:05.149Z,4.51
2022-11-28T06:04:05.217Z,4.48
2022-11-28T06:05:27.193Z,4.47
2022-11-28T06:06:06.129Z,4.40
2022-11-28T06:07:05.103Z,4.33
2022-11-28T06:08:05.162Z,4.33
2022-11-28T06:09:05.080Z,4.30
2022-11-28T06:10:05.090Z,4.30
2022-11-28T06:11:05.061Z,4.24
2022-11-28T06:12:05.160Z,4.23
2022-11-28T06:13:05.052Z,4.20
2022-11-28T06:14:05.039Z,4.18
2022-11-28T06:15:05.020Z,4.15
2022-11-28T06:16:05.067Z,4.12
2022-11-28T06:17:04.998Z,4.11
2022-11-28T06:18:05.114Z,4.08
2022-11-28T06:19:04.990Z,4.05
2022-11-28T06:20:04.982Z,4.06
2022-11-28T06:21:04.991Z,4.02
2022-11-28T06:22:04.957Z,4.00
2022-11-28T06:23:04.932Z,3.98
2022-11-28T06:24:04.941Z,3.94
2022-11-28T06:25:04.931Z,3.90
2022-11-28T06:26:04.918Z,3.88
2022-11-28T06:27:04.894Z,3.88
2022-11-28T06:28:04.884Z,3.88
2022-11-28T06:29:04.883Z,3.86
2022-11-28T06:30:04.883Z,3.83
2022-11-28T06:31:04.854Z,3.84
2022-11-28T06:32:04.918Z,3.79
2022-11-28T06:33:04.833Z,3.76
2022-11-28T06:34:04.827Z,3.78
2022-11-28T06:35:04.805Z,3.78
2022-11-28T06:36:04.824Z,3.78
2022-11-28T06:37:04.797Z,3.79
2022-11-28T06:38:04.785Z,3.79
2022-11-28T06:39:04.767Z,3.79
2022-11-28T06:40:04.779Z,3.80
2022-11-28T06:41:04.746Z,3.79
2022-11-28T06:42:04.747Z,3.80
2022-11-28T06:43:04.736Z,3.87
2022-11-28T06:44:04.737Z,3.87
2022-11-28T06:45:04.708Z,3.86
2022-11-28T06:46:04.803Z,3.86
2022-11-28T06:47:04.686Z,3.80
2022-11-28T06:48:04.677Z,3.79
2022-11-28T06:49:04.695Z,3.79
2022-11-28T06:50:04.658Z,3.78
2022-11-28T06:51:04.638Z,3.73
2022-11-28T06:52:04.644Z,3.75
2022-11-28T06:53:04.618Z,3.73
2022-11-28T06:54:04.619Z,3.72
2022-11-28T06:55:04.600Z,3.73
2022-11-28T06:56:04.598Z,3.70
2022-11-28T06:57:04.579Z,3.72
2022-11-28T06:58:04.602Z,3.70
2022-11-28T06:59:04.559Z,3.66
2022-11-28T07:00:04.570Z,3.66
2022-11-28T07:01:04.593Z,3.68
2022-11-28T07:02:07.827Z,3.66
2022-11-28T07:03:04.519Z,3.62
2022-11-28T07:04:04.510Z,3.62
2022-11-28T07:05:04.582Z,3.62
2022-11-28T07:06:04.491Z,3.62
2022-11-28T07:07:04.480Z,3.65
2022-11-28T07:08:04.563Z,3.69
2022-11-28T07:09:04.460Z,3.68
2022-11-28T07:10:04.457Z,3.72
2022-11-28T07:11:04.441Z,3.73
2022-11-28T07:12:04.431Z,3.75
2022-11-28T07:13:05.689Z,3.75
2022-11-28T07:14:04.432Z,3.76
2022-11-28T07:15:04.393Z,3.79
2022-11-28T07:16:04.396Z,3.79
2022-11-28T07:17:04.370Z,3.79
2022-11-28T07:18:04.383Z,3.80
2022-11-28T07:19:04.355Z,3.79
2022-11-28T07:20:04.353Z,3.80
2022-11-28T07:21:04.334Z,3.84
2022-11-28T07:22:04.340Z,3.83
2022-11-28T07:23:04.314Z,3.80
2022-11-28T07:24:04.324Z,3.84
2022-11-28T07:25:04.292Z,3.90
2022-11-28T07:26:04.285Z,3.96
2022-11-28T07:27:04.284Z,3.97
2022-11-28T07:28:04.273Z,3.97
2022-11-28T07:29:04.246Z,4.00
2022-11-28T07:30:04.246Z,4.02
2022-11-28T07:31:04.265Z,4.02
2022-11-28T07:32:04.321Z,4.04
2022-11-28T07:33:04.207Z,4.08
2022-11-28T07:34:04.209Z,4.20
2022-11-28T07:35:04.187Z,4.27
2022-11-28T07:36:04.180Z,4.34
2022-11-28T07:37:04.168Z,4.37
2022-11-28T07:38:04.158Z,4.37
2022-11-28T07:39:04.138Z,4.41
2022-11-28T07:40:04.144Z,4.40
2022-11-28T07:41:04.138Z,4.40
2022-11-28T07:42:04.118Z,4.42
2022-11-28T07:43:04.106Z,4.42
2022-11-28T07:44:04.105Z,4.45
2022-11-28T07:45:04.126Z,4.48
2022-11-28T07:46:04.116Z,4.51
2022-11-28T07:47:04.140Z,4.58
2022-11-28T07:48:04.060Z,4.62
2022-11-28T07:49:04.041Z,4.63
2022-11-28T07:50:04.030Z,4.66
2022-11-28T07:51:04.029Z,4.69
2022-11-28T07:52:04.012Z,4.69
2022-11-28T07:53:07.201Z,4.72
2022-11-28T07:54:04.003Z,4.69
2022-11-28T07:55:03.991Z,4.77
2022-11-28T07:56:03.969Z,4.82
2022-11-28T07:57:12.499Z,4.82
2022-11-28T07:58:04.951Z,4.85
2022-11-28T07:59:03.929Z,4.86
2022-11-28T08:00:03.950Z,4.86
2022-11-28T08:01:03.912Z,4.89
2022-11-28T08:02:03.971Z,4.94
2022-11-28T08:03:03.911Z,4.94
2022-11-28T08:04:03.970Z,4.99
2022-11-28T08:05:03.906Z,5.00
2022-11-28T08:06:03.873Z,4.99
2022-11-28T08:07:03.854Z,5.02
2022-11-28T08:08:03.906Z,5.00
2022-11-28T08:09:03.844Z,5.03
2022-11-28T08:10:03.824Z,5.04
2022-11-28T08:11:03.803Z,5.06
2022-11-28T08:12:03.806Z,5.10
2022-11-28T08:13:03.786Z,5.09
2022-11-28T08:14:03.786Z,5.15
2022-11-28T08:15:03.952Z,5.15
2022-11-28T08:16:03.763Z,5.21
2022-11-28T08:17:03.806Z,5.24
2022-11-28T08:18:03.734Z,5.28
2022-11-28T08:19:04.347Z,5.31
2022-11-28T08:20:03.716Z,5.38
2022-11-28T08:21:03.706Z,5.42
2022-11-28T08:22:03.696Z,5.45
2022-11-28T08:23:03.678Z,5.51
2022-11-28T08:24:03.681Z,5.57
2022-11-28T08:25:03.660Z,5.61
2022-11-28T08:26:03.658Z,5.63
2022-11-28T08:27:03.815Z,5.72
2022-11-28T08:28:03.653Z,5.76
2022-11-28T08:29:03.638Z,5.79
2022-11-28T08:30:03.649Z,5.85
2022-11-28T08:31:03.602Z,5.91
2022-11-28T08:32:03.598Z,5.94
2022-11-28T08:33:04.371Z,6.01
2022-11-28T08:34:03.843Z,6.09
2022-11-28T08:35:03.562Z,6.09
2022-11-28T08:36:03.556Z,6.17
2022-11-28T08:37:03.524Z,6.19
2022-11-28T08:38:03.545Z,6.27
2022-11-28T08:39:22.873Z,6.33
2022-11-28T08:40:04.509Z,6.36
2022-11-28T08:41:03.497Z,6.37
2022-11-28T08:42:03.496Z,6.38
2022-11-28T08:43:03.480Z,6.41
2022-11-28T08:44:03.493Z,6.38
2022-11-28T08:45:03.442Z,6.44
2022-11-28T08:46:03.504Z,6.48
2022-11-28T08:47:03.427Z,6.49
2022-11-28T08:48:03.412Z,6.48
2022-11-28T08:49:04.751Z,6.48
2022-11-28T08:50:03.405Z,6.51
2022-11-28T08:51:03.392Z,6.51
2022-11-28T08:52:03.373Z,6.52
2022-11-28T08:53:07.848Z,6.49
2022-11-28T08:54:03.355Z,6.54
2022-11-28T08:55:03.353Z,6.54
2022-11-28T08:56:03.324Z,6.52
2022-11-28T08:57:03.324Z,6.54
2022-11-28T08:58:03.313Z,6.54
2022-11-28T08:59:03.322Z,6.52
2022-11-28T09:00:03.286Z,6.51
2022-11-28T09:01:03.306Z,6.49
2022-11-28T09:02:03.266Z,6.51
2022-11-28T09:03:03.256Z,6.48
2022-11-28T09:04:03.349Z,6.46
2022-11-28T09:05:03.244Z,6.48
2022-11-28T09:06:03.252Z,6.52
2022-11-28T09:07:03.206Z,6.55
2022-11-28T09:08:03.283Z,6.58
2022-11-28T09:09:03.191Z,6.58
2022-11-28T09:10:03.184Z,6.62
2022-11-28T09:11:03.158Z,6.64
2022-11-28T09:12:03.168Z,6.66
2022-11-28T09:13:03.148Z,6.61
2022-11-28T09:14:03.148Z,6.66
2022-11-28T09:15:03.109Z,6.64
2022-11-28T09:16:03.115Z,6.69
2022-11-28T09:17:03.208Z,6.69
2022-11-28T09:18:03.107Z,6.69
2022-11-28T09:19:03.079Z,6.73
2022-11-28T09:20:03.079Z,6.74
2022-11-28T09:21:03.049Z,6.74
2022-11-28T09:22:03.053Z,6.76
2022-11-28T09:23:03.030Z,6.76
2022-11-28T09:24:03.061Z,6.80
2022-11-28T09:25:03.023Z,6.84
2022-11-28T09:26:03.113Z,6.85
2022-11-28T09:27:02.990Z,6.87
2022-11-28T09:28:02.992Z,6.88
2022-11-28T09:29:02.962Z,6.89
2022-11-28T09:30:02.962Z,6.91
2022-11-28T09:31:03.010Z,6.88
2022-11-28T09:32:02.955Z,6.94
2022-11-28T09:33:02.922Z,6.92
2022-11-28T09:34:02.934Z,6.94
2022-11-28T09:35:02.904Z,6.94
2022-11-28T09:36:02.903Z,6.99
2022-11-28T09:37:04.996Z,6.99
2022-11-28T09:38:02.883Z,7.03
2022-11-28T09:39:02.874Z,7.06
2022-11-28T09:40:13.162Z,7.10
2022-11-28T09:41:03.895Z,7.12
2022-11-28T09:42:03.634Z,7.16
2022-11-28T09:43:02.815Z,7.17
2022-11-28T09:44:02.827Z,7.16
2022-11-28T09:45:02.796Z,7.20
2022-11-28T09:46:02.880Z,7.23
2022-11-28T09:47:02.787Z,7.27
2022-11-28T09:48:02.773Z,7.30
2022-11-28T09:49:02.758Z,7.32
2022-11-28T09:50:02.757Z,7.40
2022-11-28T09:51:02.726Z,7.40
2022-11-28T09:52:02.759Z,7.42
2022-11-28T09:53:02.779Z,7.43
2022-11-28T09:54:02.709Z,7.49
2022-11-28T09:55:02.688Z,7.52
2022-11-28T09:56:02.693Z,7.57
2022-11-28T09:57:02.700Z,7.58
2022-11-28T09:58:02.661Z,7.61
2022-11-28T09:59:02.661Z,7.60
2022-11-28T10:00:02.639Z,7.68
2022-11-28T10:01:02.665Z,7.72
2022-11-28T10:02:02.617Z,7.82
2022-11-28T10:03:02.622Z,7.82
2022-11-28T10:04:02.780Z,7.85
2022-11-28T10:05:02.657Z,7.92
2022-11-28T10:06:02.592Z,7.97
2022-11-28T10:07:02.569Z,7.97
2022-11-28T10:08:02.625Z,7.93
2022-11-28T10:09:02.553Z,8.00
2022-11-28T10:10:02.531Z,8.04
2022-11-28T10:11:02.531Z,8.05
2022-11-28T10:12:02.510Z,8.08
2022-11-28T10:13:02.519Z,8.12
2022-11-28T10:14:09.698Z,8.10
2022-11-28T10:15:03.495Z,8.11
2022-11-28T10:16:02.482Z,8.16
2022-11-28T10:17:02.578Z,8.20
2022-11-28T10:18:02.451Z,8.26
2022-11-28T10:19:02.455Z,8.33
2022-11-28T10:20:02.613Z,8.36
2022-11-28T10:21:02.424Z,8.43
2022-11-28T10:22:02.407Z,8.41
2022-11-28T10:23:02.406Z,8.47
2022-11-28T10:24:02.391Z,8.48
2022-11-28T10:25:02.498Z,8.55
2022-11-28T10:26:02.362Z,8.55
2022-11-28T10:27:02.368Z,8.56
2022-11-28T10:28:02.335Z,8.56
2022-11-28T10:29:02.347Z,8.59
2022-11-28T10:30:02.330Z,8.65
2022-11-28T10:31:02.414Z,8.73
2022-11-28T10:32:02.303Z,8.74
2022-11-28T10:33:02.298Z,8.79
2022-11-28T10:34:02.278Z,8.81
2022-11-28T10:35:02.288Z,8.87
2022-11-28T10:36:02.260Z,8.96
2022-11-28T10:37:02.287Z,9.01
2022-11-28T10:38:02.236Z,9.01
2022-11-28T10:39:02.238Z,9.10
2022-11-28T10:40:02.228Z,9.18
2022-11-28T10:41:02.218Z,9.28
2022-11-28T10:42:02.202Z,9.33
2022-11-28T10:43:02.203Z,9.35
2022-11-28T10:44:02.170Z,9.39
2022-11-28T10:45:02.171Z,9.42
2022-11-28T10:46:02.206Z,9.47
2022-11-28T10:47:02.173Z,9.50
2022-11-28T10:48:29.601Z,9.57
2022-11-28T10:49:03.130Z,9.58
2022-11-28T10:50:02.113Z,9.64
2022-11-28T10:51:02.102Z,9.69
2022-11-28T10:52:02.173Z,9.79
2022-11-28T10:53:02.091Z,9.84
2022-11-28T10:54:02.073Z,9.94
2022-11-28T10:55:02.745Z,10.01
2022-11-28T10:56:02.049Z,10.12
2022-11-28T10:57:02.334Z,10.15
2022-11-28T10:58:02.038Z,10.20
2022-11-28T10:59:02.013Z,10.26
2022-11-28T11:00:02.001Z,10.29
2022-11-28T11:01:02.036Z,10.34
2022-11-28T11:02:02.022Z,10.45
2022-11-28T11:03:01.984Z,10.48
2022-11-28T11:04:01.955Z,10.53
2022-11-28T11:05:02.030Z,10.68
2022-11-28T11:06:01.935Z,10.81
2022-11-28T11:07:09.063Z,10.92
2022-11-28T11:08:03.791Z,11.06
2022-11-28T11:09:01.917Z,11.15
2022-11-28T11:10:01.902Z,11.28
2022-11-28T11:11:01.886Z,11.24
2022-11-28T11:12:01.881Z,11.24
2022-11-28T11:13:01.869Z,11.35
2022-11-28T11:14:01.847Z,11.47
2022-11-28T11:15:01.855Z,11.58
2022-11-28T11:16:01.855Z,11.72
2022-11-28T11:17:01.830Z,11.75
2022-11-28T11:18:01.799Z,11.75
2022-11-28T11:19:01.816Z,11.79
2022-11-28T11:20:01.787Z,11.86
2022-11-28T11:21:01.790Z,11.99
2022-11-28T11:22:01.778Z,12.07
2022-11-28T11:23:01.760Z,12.19
2022-11-28T11:24:01.747Z,12.16
2022-11-28T11:25:01.741Z,12.23
2022-11-28T11:26:01.720Z,12.34
2022-11-28T11:27:01.722Z,12.42
2022-11-28T11:28:01.718Z,12.41
2022-11-28T11:29:01.701Z,12.37
2022-11-28T11:30:01.697Z,12.24
2022-11-28T11:31:01.726Z,12.23
2022-11-28T11:32:01.673Z,12.21
2022-11-28T11:33:01.653Z,12.20
2022-11-28T11:34:01.653Z,12.14
2022-11-28T11:35:01.657Z,12.12
2022-11-28T11:36:01.751Z,12.09
2022-11-28T11:37:01.626Z,12.10
2022-11-28T11:38:01.604Z,12.14
2022-11-28T11:39:01.595Z,12.19
2022-11-28T11:40:01.567Z,12.27
2022-11-28T11:41:01.575Z,12.38
2022-11-28T11:42:01.546Z,12.38
2022-11-28T11:43:01.555Z,12.45
2022-11-28T11:44:01.537Z,12.49
2022-11-28T11:45:02.198Z,12.49
2022-11-28T11:46:01.553Z,12.56
2022-11-28T11:47:01.516Z,12.47
2022-11-28T11:48:01.528Z,12.53
2022-11-28T11:49:01.505Z,12.46
2022-11-28T11:50:01.542Z,12.38
2022-11-28T11:51:01.459Z,12.46
2022-11-28T11:52:01.441Z,12.38
2022-11-28T11:53:01.451Z,12.34
2022-11-28T11:54:01.700Z,12.32
2022-11-28T11:55:01.418Z,12.13
2022-11-28T11:56:01.432Z,11.91
2022-11-28T11:57:30.655Z,11.70
2022-11-28T11:58:05.698Z,11.58
2022-11-28T11:59:01.380Z,11.55
2022-11-28T12:00:01.547Z,11.58
2022-11-28T12:01:01.354Z,11.65
2022-11-28T12:02:01.342Z,11.67
2022-11-28T12:03:01.447Z,11.64
2022-11-28T12:04:08.512Z,11.70
2022-11-28T12:05:02.459Z,11.69
2022-11-28T12:06:16.599Z,11.73
2022-11-28T12:07:02.302Z,11.72
2022-11-28T12:08:01.400Z,11.70
2022-11-28T12:09:01.279Z,11.64
2022-11-28T12:11:02.255Z,11.64
2022-11-28T12:12:01.234Z,11.70
2022-11-28T12:13:01.264Z,11.75
2022-11-28T12:14:01.217Z,11.65
2022-11-28T12:15:01.217Z,11.60
2022-11-28T12:16:01.253Z,11.55
2022-11-28T12:17:07.542Z,11.52
2022-11-28T12:18:02.168Z,11.54
2022-11-28T12:19:01.158Z,11.55
2022-11-28T12:20:01.142Z,11.54
2022-11-28T12:21:01.243Z,11.49
2022-11-28T12:22:01.119Z,11.49
2022-11-28T12:23:01.121Z,11.51
2022-11-28T12:24:01.129Z,11.44
2022-11-28T12:25:01.921Z,11.42
2022-11-28T12:26:01.892Z,11.39
2022-11-28T12:27:01.070Z,11.42
2022-11-28T12:28:01.053Z,11.42
2022-11-28T12:29:01.068Z,11.42
2022-11-28T12:30:01.033Z,11.40
2022-11-28T12:31:01.082Z,11.39
2022-11-28T12:32:01.019Z,11.43
2022-11-28T12:33:01.012Z,11.44
2022-11-28T12:34:01.003Z,11.46
2022-11-28T12:35:01.011Z,11.52
2022-11-28T12:36:03.309Z,11.57
2022-11-28T12:37:00.965Z,11.58
2022-11-28T12:38:16.331Z,11.61
2022-11-28T12:39:01.944Z,11.55
2022-11-28T12:40:00.932Z,11.51
2022-11-28T12:41:00.929Z,11.51
2022-11-28T12:42:00.905Z,11.51
2022-11-28T12:43:00.902Z,11.49
2022-11-28T12:44:00.988Z,11.47
2022-11-28T12:45:00.886Z,11.43
2022-11-28T12:46:00.922Z,11.39
2022-11-28T12:47:00.857Z,11.36
2022-11-28T12:48:00.849Z,11.35
2022-11-28T12:49:00.837Z,11.37
2022-11-28T12:50:00.835Z,11.39
2022-11-28T12:51:00.841Z,11.37
2022-11-28T12:52:00.797Z,11.39
2022-11-28T12:53:00.802Z,11.39
2022-11-28T12:54:00.836Z,11.39
2022-11-28T12:55:00.780Z,11.42
2022-11-28T12:56:00.761Z,11.44
2022-11-28T12:57:00.810Z,11.42
2022-11-28T12:58:05.560Z,11.39
2022-11-28T12:59:01.799Z,11.32
2022-11-28T13:00:06.684Z,11.19
2022-11-28T13:01:01.722Z,11.10
2022-11-28T13:02:03.946Z,11.03
2022-11-28T13:03:01.726Z,11.02
2022-11-28T13:04:00.671Z,11.00
2022-11-28T13:05:00.664Z,11.02
2022-11-28T13:06:00.653Z,11.04
2022-11-28T13:07:00.673Z,11.11
2022-11-28T13:08:00.735Z,11.19
2022-11-28T13:09:00.624Z,11.22
2022-11-28T13:10:00.617Z,11.25
2022-11-28T13:11:00.603Z,11.27
2022-11-28T13:12:00.766Z,11.27
2022-11-28T13:13:00.593Z,11.32
2022-11-28T13:14:00.604Z,11.33